createdAt,value
2023-01-29T00:02:49.730Z,0.72
2023-01-29T00:04:07.376Z,0.73
2023-01-29T00:05:27.814Z,0.57
2023-01-29T00:06:37.379Z,0.46
2023-01-29T00:07:49.329Z,0.42
2023-01-29T00:08:59.383Z,0.47
2023-01-29T00:10:10.229Z,0.52
2023-01-29T00:11:27.164Z,0.29
2023-01-29T00:12:56.686Z,0.25
2023-01-29T00:14:03.227Z,0.12
2023-01-29T00:16:34.201Z,0.22
2023-01-29T00:17:42.002Z,0.16
2023-01-29T00:18:49.541Z,0.23
2023-01-29T00:19:57.617Z,0.35
2023-01-29T00:21:07.901Z,0.26
2023-01-29T00:22:18.663Z,0.28
2023-01-29T00:23:33.878Z,0.41
2023-01-29T00:25:09.785Z,-0.06
2023-01-29T00:27:51.059Z,-0.13
2023-01-29T00:29:05.590Z,0.00
2023-01-29T00:30:19.786Z,0.09
2023-01-29T00:31:27.833Z,0.03
2023-01-29T00:32:32.133Z,-0.10
2023-01-29T00:33:37.361Z,0.01
2023-01-29T00:34:46.598Z,0.14
2023-01-29T00:35:55.211Z,0.02
2023-01-29T00:37:19.675Z,0.20
2023-01-29T00:38:24.190Z,0.25
2023-01-29T00:39:47.740Z,0.40
2023-01-29T00:41:25.447Z,0.32
2023-01-29T00:42:47.300Z,0.10
2023-01-29T00:44:07.823Z,0.14
2023-01-29T00:45:13.980Z,-0.03
2023-01-29T00:46:17.642Z,-0.12
2023-01-29T00:47:43.148Z,-0.08
2023-01-29T00:48:48.674Z,-0.09
2023-01-29T00:50:08.255Z,0.04
2023-01-29T00:51:16.416Z,0.14
2023-01-29T00:52:29.737Z,-0.02
2023-01-29T00:53:40.671Z,-0.03
2023-01-29T00:54:49.553Z,-0.10
2023-01-29T00:55:55.221Z,-0.12
2023-01-29T00:57:03.399Z,-0.17
2023-01-29T00:58:13.438Z,-0.03
2023-01-29T00:59:26.571Z,0.12
2023-01-29T01:00:35.560Z,-0.12
2023-01-29T01:02:00.564Z,-0.09
2023-01-29T01:03:20.112Z,-0.05
2023-01-29T01:06:23.003Z,-0.16
2023-01-29T01:07:29.262Z,0.02
2023-01-29T01:09:14.994Z,0.19
2023-01-29T01:10:39.854Z,0.26
2023-01-29T01:11:53.960Z,0.20
2023-01-29T01:13:26.833Z,0.22
2023-01-29T01:14:58.934Z,0.33
2023-01-29T01:18:12.086Z,0.24
2023-01-29T01:19:25.596Z,0.29
2023-01-29T01:20:46.274Z,0.27
2023-01-29T01:22:19.023Z,0.28
2023-01-29T01:23:56.305Z,0.05
2023-01-29T01:25:13.291Z,0.14
2023-01-29T01:26:23.993Z,0.15
2023-01-29T01:27:34.541Z,-0.09
2023-01-29T01:28:55.372Z,-0.16
2023-01-29T01:32:53.346Z,-0.09
2023-01-29T01:34:06.093Z,-0.01
2023-01-29T01:35:28.867Z,-0.14
2023-01-29T01:37:01.240Z,-0.27
2023-01-29T01:38:35.550Z,-0.25
2023-01-29T01:41:29.945Z,-0.32
2023-01-29T01:42:34.040Z,-0.21
2023-01-29T01:44:11.015Z,-0.17
2023-01-29T01:47:12.729Z,-0.35
2023-01-29T01:48:26.682Z,-0.30
2023-01-29T01:49:36.799Z,-0.18
2023-01-29T01:51:16.704Z,-0.23
2023-01-29T01:53:42.111Z,-0.26
2023-01-29T02:00:35.965Z,-0.38
2023-01-29T02:03:38.490Z,-0.58
2023-01-29T02:05:09.148Z,-0.59
2023-01-29T02:06:33.243Z,-0.56
2023-01-29T02:08:03.638Z,-0.67
2023-01-29T02:12:00.019Z,-0.67
2023-01-29T02:13:05.813Z,-0.60
2023-01-29T02:14:12.861Z,-0.65
2023-01-29T02:15:16.365Z,-0.60
2023-01-29T02:16:24.339Z,-0.50
2023-01-29T02:17:37.857Z,-0.58
2023-01-29T02:18:48.914Z,-0.55
2023-01-29T02:20:11.604Z,-0.67
2023-01-29T02:24:02.655Z,-0.28
2023-01-29T02:25:59.764Z,-0.23
2023-01-29T02:27:51.542Z,-0.18
2023-01-29T02:29:31.780Z,-0.47
2023-01-29T02:31:13.381Z,-0.32
2023-01-29T02:32:55.457Z,-0.57
2023-01-29T02:34:18.373Z,-0.32
2023-01-29T02:36:03.588Z,-0.30
2023-01-29T02:37:12.750Z,-0.29
2023-01-29T02:38:52.638Z,-0.24
2023-01-29T02:40:24.251Z,-0.33
2023-01-29T02:42:05.910Z,-0.34
2023-01-29T02:43:37.773Z,-0.38
2023-01-29T02:45:07.588Z,-0.50
2023-01-29T02:46:47.856Z,-0.38
2023-01-29T02:48:08.152Z,-0.31
2023-01-29T02:49:52.838Z,-0.26
2023-01-29T02:51:22.837Z,-0.31
2023-01-29T02:52:53.161Z,-0.36
2023-01-29T02:56:24.817Z,-0.05
2023-01-29T02:57:41.727Z,-0.14
2023-01-29T02:59:10.740Z,-0.03
2023-01-29T03:00:30.018Z,-0.07
2023-01-29T03:01:46.060Z,-0.07
2023-01-29T03:03:15.723Z,-0.09
2023-01-29T03:04:30.956Z,-0.12
2023-01-29T03:06:07.736Z,-0.01
2023-01-29T03:07:45.599Z,0.06
2023-01-29T03:09:12.080Z,-0.03
2023-01-29T03:10:33.965Z,-0.24
2023-01-29T03:11:52.711Z,-0.35
2023-01-29T03:13:27.390Z,-0.24
2023-01-29T03:14:56.867Z,-0.16
2023-01-29T03:16:18.473Z,-0.16
2023-01-29T03:17:40.316Z,-0.20
2023-01-29T03:19:02.512Z,-0.13
2023-01-29T03:22:00.781Z,-0.50
2023-01-29T03:23:18.822Z,-0.49
2023-01-29T03:25:18.397Z,-0.36
2023-01-29T03:26:52.505Z,-0.19
2023-01-29T03:28:27.275Z,-0.40
2023-01-29T03:30:05.896Z,-0.27
2023-01-29T03:31:58.412Z,-0.25
2023-01-29T03:33:34.628Z,-0.31
2023-01-29T03:35:00.753Z,-0.26
2023-01-29T03:36:41.976Z,-0.32
2023-01-29T03:39:21.234Z,-0.06
2023-01-29T03:40:48.508Z,-0.05
2023-01-29T03:42:36.073Z,-0.23
2023-01-29T03:44:14.131Z,-0.08
2023-01-29T03:46:35.737Z,-0.09
2023-01-29T03:48:00.243Z,-0.11
2023-01-29T03:53:53.481Z,-0.33
2023-01-29T03:55:26.718Z,-0.27
2023-01-29T03:57:02.659Z,-0.15
2023-01-29T03:58:16.476Z,-0.09
2023-01-29T03:59:31.672Z,-0.16
2023-01-29T04:00:59.758Z,-0.16
2023-01-29T04:03:07.746Z,-0.13
2023-01-29T04:04:31.114Z,-0.16
2023-01-29T04:05:56.327Z,-0.17
2023-01-29T04:07:29.006Z,-0.23
2023-01-29T04:09:10.937Z,-0.24
2023-01-29T04:10:45.818Z,-0.23
2023-01-29T04:12:14.700Z,-0.18
2023-01-29T04:15:31.933Z,-0.18
2023-01-29T04:16:58.794Z,-0.17
2023-01-29T04:19:55.244Z,-0.23
2023-01-29T04:21:39.338Z,-0.30
2023-01-29T04:23:16.722Z,-0.36
2023-01-29T04:24:33.993Z,-0.42
2023-01-29T04:25:59.604Z,-0.52
2023-01-29T04:27:37.014Z,-0.63
2023-01-29T04:29:23.451Z,-0.69
2023-01-29T04:31:06.580Z,-0.46
2023-01-29T04:32:51.678Z,-0.37
2023-01-29T04:34:25.150Z,-0.40
2023-01-29T04:35:56.376Z,-0.28
2023-01-29T04:37:52.548Z,-0.24
2023-01-29T04:39:20.747Z,-0.27
2023-01-29T04:45:03.003Z,-0.34
2023-01-29T04:46:08.843Z,-0.50
2023-01-29T04:47:37.420Z,-0.47
2023-01-29T04:49:30.472Z,-0.30
2023-01-29T04:50:53.748Z,-0.27
2023-01-29T04:52:12.881Z,-0.21
2023-01-29T04:53:38.872Z,-0.25
2023-01-29T04:55:03.440Z,-0.21
2023-01-29T04:56:44.988Z,-0.43
2023-01-29T04:58:08.580Z,-0.21
2023-01-29T04:59:25.857Z,-0.55
2023-01-29T05:00:52.556Z,-0.45
2023-01-29T05:02:31.818Z,-0.40
2023-01-29T05:03:53.727Z,-0.41
2023-01-29T05:05:11.719Z,-0.47
2023-01-29T05:06:31.567Z,-0.44
2023-01-29T05:07:51.154Z,-0.58
2023-01-29T05:10:31.995Z,-0.41
2023-01-29T05:12:13.196Z,-0.37
2023-01-29T05:13:22.495Z,-0.36
2023-01-29T05:14:37.993Z,-0.36
2023-01-29T05:16:07.651Z,-0.48
2023-01-29T05:17:16.117Z,-0.42
2023-01-29T05:18:20.949Z,-0.34
2023-01-29T05:19:27.699Z,-0.37
2023-01-29T05:20:45.266Z,-0.23
2023-01-29T05:21:53.424Z,-0.38
2023-01-29T05:22:58.448Z,-0.32
2023-01-29T05:24:19.165Z,-0.43
2023-01-29T05:25:29.460Z,-0.47
2023-01-29T05:27:23.643Z,-0.36
2023-01-29T05:28:32.048Z,-0.48
2023-01-29T05:31:11.234Z,-0.25
2023-01-29T05:32:47.437Z,-0.22
2023-01-29T05:36:28.703Z,-0.05
2023-01-29T05:39:05.772Z,-0.17
2023-01-29T05:40:58.448Z,-0.19
2023-01-29T05:42:57.445Z,-0.15
2023-01-29T05:46:27.966Z,-0.21
2023-01-29T05:52:55.656Z,-0.37
2023-01-29T05:57:46.268Z,-0.21
2023-01-29T05:59:44.656Z,-0.31
2023-01-29T06:00:55.427Z,-0.45
2023-01-29T06:03:45.107Z,-0.34
2023-01-29T06:05:01.192Z,-0.25
2023-01-29T06:06:09.734Z,-0.05
2023-01-29T06:07:17.656Z,-0.25
2023-01-29T06:08:25.628Z,-0.28
2023-01-29T06:11:33.362Z,-0.18
2023-01-29T06:13:01.561Z,-0.14
2023-01-29T06:26:20.904Z,-0.05
2023-01-29T06:27:39.570Z,-0.15
2023-01-29T06:29:00.479Z,-0.13
2023-01-29T06:30:35.213Z,-0.10
2023-01-29T06:32:32.753Z,-0.24
2023-01-29T06:34:02.253Z,-0.25
2023-01-29T06:36:47.718Z,-0.47
2023-01-29T06:38:35.810Z,-0.36
2023-01-29T06:39:42.005Z,-0.26
2023-01-29T06:41:05.178Z,-0.31
2023-01-29T06:43:06.577Z,-0.18
2023-01-29T06:44:42.844Z,-0.26
2023-01-29T06:46:04.992Z,-0.25
2023-01-29T06:47:30.622Z,-0.17
2023-01-29T06:48:42.967Z,-0.24
2023-01-29T06:50:06.520Z,-0.25
2023-01-29T06:51:14.529Z,-0.21
2023-01-29T06:52:19.175Z,-0.43
2023-01-29T06:53:25.564Z,-0.42
2023-01-29T06:57:11.190Z,-0.21
2023-01-29T07:00:36.380Z,-0.12
2023-01-29T07:01:48.239Z,-0.05
2023-01-29T07:02:54.741Z,-0.06
2023-01-29T07:04:00.222Z,0.02
2023-01-29T07:05:04.934Z,0.11
2023-01-29T07:06:10.538Z,0.06
2023-01-29T07:07:31.837Z,0.07
2023-01-29T07:08:41.031Z,0.01
2023-01-29T07:09:52.035Z,0.02
2023-01-29T07:11:16.282Z,0.05
2023-01-29T07:13:39.118Z,0.03
2023-01-29T07:14:47.360Z,-0.03
2023-01-29T07:15:54.899Z,0.06
2023-01-29T07:17:22.886Z,0.09
2023-01-29T07:18:25.824Z,0.16
2023-01-29T07:19:36.349Z,-0.31
2023-01-29T07:20:47.017Z,-0.42
2023-01-29T07:22:04.444Z,-0.13
2023-01-29T07:23:21.760Z,-0.26
2023-01-29T07:25:25.975Z,-0.19
2023-01-29T07:26:38.360Z,-0.20
2023-01-29T07:29:51.185Z,-0.15
2023-01-29T07:31:19.621Z,-0.05
2023-01-29T07:32:51.300Z,-0.08
2023-01-29T07:34:18.786Z,-0.07
2023-01-29T07:41:40.492Z,0.16
2023-01-29T07:44:18.254Z,0.14
2023-01-29T12:51:44.118Z,0.98
2023-01-29T12:55:34.277Z,0.97
2023-01-29T12:57:20.016Z,0.80
2023-01-29T13:07:19.647Z,0.71
2023-01-29T13:09:02.697Z,0.71
2023-01-29T13:10:30.316Z,0.74
2023-01-29T13:12:03.847Z,0.78
2023-01-29T13:13:31.922Z,0.70
2023-01-29T13:14:52.930Z,0.42
2023-01-29T13:15:57.637Z,0.70
2023-01-29T13:17:26.657Z,0.49
2023-01-29T13:18:51.449Z,0.43
2023-01-29T13:20:13.515Z,0.45
2023-01-29T13:26:20.162Z,0.60
2023-01-29T13:30:39.273Z,0.45
2023-01-29T13:31:59.208Z,0.52
2023-01-29T13:33:55.595Z,0.38
2023-01-29T13:35:16.155Z,0.51
2023-01-29T13:36:39.200Z,0.58
2023-01-29T13:39:56.468Z,0.63
2023-01-29T13:41:38.325Z,0.49
2023-01-29T13:43:06.844Z,0.55
2023-01-29T13:44:44.955Z,0.54
2023-01-29T13:46:10.334Z,0.57
2023-01-29T13:47:36.549Z,0.49
2023-01-29T13:48:52.409Z,0.58
2023-01-29T13:50:25.747Z,0.28
2023-01-29T13:51:46.633Z,0.47
2023-01-29T13:53:07.917Z,0.43
2023-01-29T14:01:51.184Z,0.39
2023-01-29T14:04:39.199Z,0.29
2023-01-29T14:06:02.797Z,0.49
2023-01-29T14:11:27.814Z,0.54
2023-01-29T14:15:25.237Z,0.46
2023-01-29T14:16:54.663Z,0.47
2023-01-29T14:18:28.991Z,0.61
2023-01-29T14:20:03.225Z,0.50
2023-01-29T14:21:44.750Z,0.53
2023-01-29T14:23:11.606Z,0.49
2023-01-29T14:26:48.429Z,0.66
2023-01-29T14:28:09.891Z,0.55
2023-01-29T14:29:57.015Z,0.56
2023-01-29T14:31:17.595Z,0.54
2023-01-29T14:32:31.845Z,0.39
2023-01-29T14:33:45.844Z,0.36
2023-01-29T14:35:10.329Z,0.36
2023-01-29T14:36:37.375Z,0.39
2023-01-29T14:38:13.927Z,0.38
2023-01-29T14:39:33.396Z,0.52
2023-01-29T14:40:50.677Z,0.64
2023-01-29T14:43:06.472Z,0.67
2023-01-29T14:44:53.432Z,0.49
2023-01-29T14:47:02.717Z,0.50
2023-01-29T14:48:40.162Z,0.48
2023-01-29T14:50:00.621Z,0.43
2023-01-29T14:51:22.359Z,0.26
2023-01-29T14:53:04.989Z,0.39
2023-01-29T14:54:41.711Z,0.35
2023-01-29T14:56:20.706Z,0.27
2023-01-29T15:04:14.038Z,0.37
2023-01-29T15:05:58.963Z,0.52
2023-01-29T15:11:04.065Z,0.39
2023-01-29T15:17:13.528Z,0.29
2023-01-29T15:19:12.738Z,0.26
2023-01-29T15:20:56.951Z,0.45
2023-01-29T15:24:39.622Z,0.32
2023-01-29T15:33:43.532Z,0.42
2023-01-29T15:38:43.676Z,0.58
2023-01-29T15:50:08.823Z,0.23
2023-01-29T15:58:08.257Z,-0.02
2023-01-29T16:02:53.634Z,0.16
2023-01-29T16:04:30.599Z,0.15
2023-01-29T16:05:45.467Z,0.28
2023-01-29T16:07:36.495Z,0.37
2023-01-29T16:24:03.022Z,-0.01
2023-01-29T16:26:20.585Z,0.08
2023-01-29T16:42:23.997Z,0.08
2023-01-29T16:53:00.038Z,0.02
2023-01-29T16:54:19.014Z,-0.15
2023-01-29T16:58:04.476Z,-0.05
2023-01-29T17:01:53.621Z,-0.06
2023-01-29T17:03:10.217Z,-0.04
2023-01-29T17:04:20.572Z,-0.01
2023-01-29T17:05:33.180Z,0.05
2023-01-29T17:10:13.297Z,0.01
2023-01-29T17:12:24.342Z,0.07
2023-01-29T17:14:38.907Z,0.06
2023-01-29T17:22:29.112Z,0.02
2023-01-29T17:24:44.415Z,0.18
2023-01-29T17:29:10.057Z,0.19
2023-01-29T17:31:12.157Z,-0.01
2023-01-29T17:33:54.012Z,0.17
2023-01-29T17:40:12.534Z,0.15
2023-01-29T17:46:14.665Z,0.10
2023-01-29T17:53:02.882Z,0.17
2023-01-29T17:54:29.519Z,0.20
2023-01-29T17:57:42.279Z,0.24
2023-01-29T17:58:52.477Z,0.12
2023-01-29T18:00:03.976Z,0.25
2023-01-29T18:01:45.682Z,0.27
2023-01-29T18:02:53.465Z,0.18
2023-01-29T18:05:01.479Z,0.34
2023-01-29T18:10:23.532Z,0.14
2023-01-29T18:11:34.669Z,0.05
2023-01-29T18:13:17.842Z,0.15
2023-01-29T18:23:35.995Z,0.18
2023-01-29T18:24:51.374Z,0.19
2023-01-29T18:32:58.008Z,0.24
2023-01-29T18:34:32.421Z,0.19
2023-01-29T18:35:57.477Z,0.17
2023-01-29T18:39:31.981Z,-0.06
2023-01-29T18:40:54.344Z,0.06
2023-01-29T18:42:31.671Z,0.11
2023-01-29T18:43:50.357Z,0.25
2023-01-29T18:45:13.388Z,0.27
2023-01-29T19:04:42.592Z,0.10
2023-01-29T19:06:06.066Z,0.03
2023-01-29T19:08:34.545Z,0.08
2023-01-29T19:10:08.281Z,0.12
2023-01-29T20:08:42.286Z,0.14
2023-01-29T22:36:11.724Z,-0.13
2023-01-29T22:43:25.937Z,0.03
2023-01-29T22:46:36.523Z,0.06
2023-01-29T22:52:15.212Z,0.18
2023-01-29T22:54:52.023Z,0.17
2023-01-29T22:56:04.866Z,0.11
2023-01-29T22:58:43.886Z,0.15
2023-01-29T23:00:09.800Z,0.12
2023-01-29T23:01:40.782Z,0.13
2023-01-29T23:04:57.267Z,0.12
2023-01-29T23:17:06.381Z,-0.01
2023-01-29T23:23:12.127Z,-0.29
2023-01-29T23:29:29.029Z,-0.20
2023-01-29T23:38:38.400Z,-0.15
2023-01-29T23:40:38.039Z,-0.02
